Island Venture — WDG3765 — position and weather

sailwx.info

Track history (hours):
 
Tides and Currents Weather Stations Pressure Air Temp Water Temp Dewpoint Dewpoint Depression Visibility Wind Speed Wind Dir Waves Ship Positions

Island Venture

Owner: Island Tug and Barge, Seattle, WA. More information available from US FCC via Universal Licensing System and Coast Guard Vessel Documentation Center.

Last reported at 2016-May-24 07:33 UTC. Time now 2016-May-24 08:05 UTC.
Position N 47°34' W 122°26'.

Type: Tug. MMSI: 367529420.

Date/timePositionNaut miles runAvg speedWind from/ knotsBaromVisibWave heightAir tempDewpointWater temp
2016-May-24 07:33N 47°34' W 122°26'4 3.6
2016-May-24 06:33N 47°34' W 122°21'2 2.0
2016-May-24 05:34N 47°36' W 122°22'5 5.3
2016-May-24 04:33N 47°32' W 122°28'7 7.0
2016-May-24 03:33N 47°25' W 122°32'6 6.3
2016-May-24 02:33N 47°19' W 122°33'4 3.7
2016-May-24 01:33N 47°16' W 122°33'3 2.9
2016-May-24 00:33N 47°13' W 122°35'4 4.0
2016-May-23 23:31N 47°10' W 122°39'1 0.2
2016-May-23 17:05N 47°09' W 122°38'0 0.2
2016-May-23 16:27N 47°09' W 122°38'0 0.1
2016-May-23 15:33N 47°09' W 122°38'0 0.0
2016-May-23 14:27N 47°09' W 122°38'0 0.0
2016-May-23 13:27N 47°09' W 122°38'3 1.4
2016-May-23 11:25N 47°11' W 122°37'6 7.1
2016-May-23 10:33N 47°17' W 122°33'6 6.5
2016-May-23 09:33N 47°23' W 122°32'5 5.4
2016-May-23 08:33N 47°28' W 122°31'6 6.0
2016-May-23 07:33N 47°34' W 122°27'4 3.8
2016-May-23 06:33N 47°34' W 122°21'0 0.0
2016-May-23 05:33N 47°34' W 122°21'0 0.0
2016-May-23 04:33N 47°34' W 122°21'2 2.0
2016-May-23 03:29N 47°32' W 122°20'2 2.6
2016-May-23 02:33N 47°35' W 122°22'2 2.3
2016-May-23 01:33N 47°32' W 122°20'1 1.4
2016-May-23 00:33N 47°34' W 122°21'0 0.0
2016-May-22 23:33N 47°34' W 122°21'0 0.4
2016-May-22 22:33N 47°34' W 122°21'0 0.0
2016-May-22 21:33N 47°34' W 122°21'0 0.3
2016-May-22 20:33N 47°34' W 122°21'0 0.0
2016-May-22 19:33N 47°34' W 122°21'0 0.0
2016-May-22 18:33N 47°34' W 122°21'0 0.0
2016-May-22 17:33N 47°34' W 122°21'1 1.3
2016-May-22 16:33N 47°36' W 122°22'6 6.1
2016-May-22 15:33N 47°37' W 122°31'0 0.4
2016-May-22 14:33N 47°37' W 122°30'7 6.5
2016-May-22 13:33N 47°34' W 122°21'0 0.0
2016-May-22 01:09N 47°34' W 122°21'1 1.2
2016-May-22 00:33N 47°34' W 122°21'2 2.1
2016-May-21 23:33N 47°36' W 122°22'5 5.0
2016-May-21 22:33N 47°39' W 122°28'7 6.8
2016-May-21 21:33N 47°45' W 122°27'7 6.8
2016-May-21 20:33N 47°52' W 122°29'6 6.4
2016-May-21 19:33N 47°57' W 122°35'12 4.9
2016-May-21 17:11N 48°08' W 122°42'3 3.3
2016-May-21 16:13N 48°10' W 122°46'2 2.1
2016-May-21 15:16N 48°11' W 122°48'10 5.5
2016-May-21 13:31N 48°21' W 122°46'7 6.8
2016-May-21 12:33N 48°27' W 122°44'7 6.7
2016-May-21 11:33N 48°34' W 122°45'7 6.7
2016-May-21 10:33N 48°40' W 122°44'6 6.3
2016-May-21 09:33N 48°46' W 122°49'7 7.1
2016-May-21 08:33N 48°50' W 122°58'7 7.4
2016-May-21 07:33N 48°54' W 123°07'7 6.8
2016-May-21 06:33N 48°58' W 123°16'7 7.5
2016-May-21 05:33N 49°03' W 123°23'8 7.6
2016-May-21 04:33N 49°08' W 123°32'7 7.2
2016-May-21 03:33N 49°13' W 123°41'7 7.1
2016-May-21 02:33N 49°17' W 123°49'30 6.9
2016-May-20 22:10N 49°36' W 124°26'4 6.3
2016-May-20 21:31N 49°39' W 124°31'4 1.2
2016-May-20 18:29N 49°42' W 124°33'0 0.0
2016-May-20 16:33N 49°42' W 124°33'0 0.0
2016-May-20 15:33N 49°42' W 124°33'0 0.0
2016-May-20 14:31N 49°42' W 124°33'0 0.0
2016-May-20 13:33N 49°42' W 124°33'0 0.0
2016-May-20 12:33N 49°42' W 124°33'0 0.0
2016-May-20 11:33N 49°42' W 124°33'0 0.3
2016-May-20 10:33N 49°42' W 124°33'0 0.0
2016-May-20 09:33N 49°42' W 124°33'0 0.0
2016-May-20 08:33N 49°42' W 124°33'1 0.5
2016-May-20 07:33N 49°42' W 124°34'3 2.6
2016-May-20 06:31N 49°39' W 124°32'8 8.4
2016-May-20 05:33N 49°34' W 124°22'8 8.1
2016-May-20 04:33N 49°30' W 124°11'8 8.1
2016-May-20 03:33N 49°26' W 124°01'8 7.6
2016-May-20 02:33N 49°22' W 123°51'7 7.4
2016-May-20 01:33N 49°18' W 123°41'7 7.4
2016-May-20 00:33N 49°12' W 123°35'8 8.0
2016-May-19 23:33N 49°06' W 123°25'8 8.3
2016-May-19 22:33N 49°01' W 123°15'8 8.4
2016-May-19 21:33N 48°55' W 123°06'8 7.9
2016-May-19 20:33N 48°50' W 122°57'8 8.2
2016-May-19 19:33N 48°46' W 122°47'7 7.4
2016-May-19 18:33N 48°39' W 122°43'6 6.4
2016-May-19 17:33N 48°32' W 122°44'6 6.3
2016-May-19 16:33N 48°26' W 122°44'7 6.5
2016-May-19 15:32N 48°20' W 122°46'8 7.7
2016-May-19 14:33N 48°12' W 122°47'1110.8
2016-May-19 13:31N 48°03' W 122°38'1010.2
2016-May-19 12:33N 47°55' W 122°29'8 7.6
2016-May-19 11:33N 47°48' W 122°26'6 5.9
2016-May-19 10:33N 47°42' W 122°27'6 5.5
2016-May-19 09:33N 47°37' W 122°24'2 2.0
2016-May-19 08:33N 47°35' W 122°22'1 1.0
2016-May-19 07:33N 47°34' W 122°21'2 2.3
2016-May-19 06:33N 47°36' W 122°24'7 7.0
2016-May-19 05:34N 47°30' W 122°30'8 7.5
2016-May-19 04:33N 47°22' W 122°32'9 8.3
2016-May-19 03:32N 47°14' W 122°35'14 0.8
2016-May-18 10:11N 47°10' W 122°54'1 0.9
2016-May-18 09:28N 47°09' W 122°53'9 4.4
2016-May-18 07:28N 47°08' W 122°40'6 6.8
2016-May-18 06:31N 47°14' W 122°35'8 8.4
2016-May-18 05:33N 47°22' W 122°32'8 7.8
2016-May-18 04:33N 47°29' W 122°30'8 8.0
2016-May-18 03:33N 47°36' W 122°24'1 1.3
2016-May-18 02:33N 47°35' W 122°22'0 0.0
2016-May-18 01:34N 47°35' W 122°22'1 1.0
2016-May-18 00:33N 47°34' W 122°21'0 0.0
2016-May-17 23:33N 47°34' W 122°21'0 0.0
2016-May-17 22:33N 47°34' W 122°21'0 0.0
2016-May-17 21:33N 47°34' W 122°21'0 0.0
2016-May-17 20:33N 47°34' W 122°21'2 1.8
2016-May-17 19:33N 47°33' W 122°20'3 3.2
2016-May-17 18:33N 47°36' W 122°22'3 3.4
2016-May-17 17:33N 47°33' W 122°26'4 4.2
2016-May-17 16:33N 47°30' W 122°30'5 4.6
2016-May-17 15:33N 47°26' W 122°31'6 5.6
2016-May-17 14:33N 47°20' W 122°33'8 7.8
2016-May-17 13:33N 47°12' W 122°36'13 6.0
2016-May-17 11:25N 47°10' W 122°54'1 0.1
2016-May-16 20:28N 47°09' W 122°54'11 3.7
2016-May-16 17:32N 47°11' W 122°38'8 8.1
2016-May-16 16:33N 47°18' W 122°33'7 7.1
2016-May-16 15:33N 47°25' W 122°32'7 7.5
2016-May-16 14:33N 47°32' W 122°28'5 5.3
2016-May-16 13:33N 47°34' W 122°21'0 0.4
2016-May-16 12:33N 47°34' W 122°21'0 0.0
2016-May-14 14:34N 47°34' W 122°21'2 1.8
2016-May-14 13:34N 47°32' W 122°20'1 0.7
2016-May-14 12:33N 47°33' W 122°20'1 1.4
2016-May-14 11:34N 47°34' W 122°21'0 0.0
2016-May-14 10:34N 47°34' W 122°21'0 0.0
2016-May-14 09:34N 47°34' W 122°21'0 0.0
2016-May-14 08:34N 47°34' W 122°21'0 0.0
2016-May-14 07:33N 47°34' W 122°21'  
Track history (hours):
 
Tides and Currents Weather Stations Pressure Air Temp Water Temp Dewpoint Dewpoint Depression Visibility Wind Speed Wind Dir Waves Ship Positions

Island Venture

Owner: Island Tug and Barge, Seattle, WA. More information available from US FCC via Universal Licensing System and Coast Guard Vessel Documentation Center.

Last reported at 2016-May-24 07:33 UTC. Time now 2016-May-24 08:05 UTC.
Position N 47°34' W 122°26'.

Type: Tug. MMSI: 367529420.

Date/timePositionNaut miles runAvg speedWind from/ knotsBaromVisibWave heightAir tempDewpointWater temp
2016-May-24 07:33N 47°34' W 122°26'4 3.6
2016-May-24 06:33N 47°34' W 122°21'2 2.0
2016-May-24 05:34N 47°36' W 122°22'5 5.3
2016-May-24 04:33N 47°32' W 122°28'7 7.0
2016-May-24 03:33N 47°25' W 122°32'6 6.3
2016-May-24 02:33N 47°19' W 122°33'4 3.7
2016-May-24 01:33N 47°16' W 122°33'3 2.9
2016-May-24 00:33N 47°13' W 122°35'4 4.0
2016-May-23 23:31N 47°10' W 122°39'1 0.2
2016-May-23 17:05N 47°09' W 122°38'0 0.2
2016-May-23 16:27N 47°09' W 122°38'0 0.1
2016-May-23 15:33N 47°09' W 122°38'0 0.0
2016-May-23 14:27N 47°09' W 122°38'0 0.0
2016-May-23 13:27N 47°09' W 122°38'3 1.4
2016-May-23 11:25N 47°11' W 122°37'6 7.1
2016-May-23 10:33N 47°17' W 122°33'6 6.5
2016-May-23 09:33N 47°23' W 122°32'5 5.4
2016-May-23 08:33N 47°28' W 122°31'6 6.0
2016-May-23 07:33N 47°34' W 122°27'4 3.8
2016-May-23 06:33N 47°34' W 122°21'0 0.0
2016-May-23 05:33N 47°34' W 122°21'0 0.0
2016-May-23 04:33N 47°34' W 122°21'2 2.0
2016-May-23 03:29N 47°32' W 122°20'2 2.6
2016-May-23 02:33N 47°35' W 122°22'2 2.3
2016-May-23 01:33N 47°32' W 122°20'1 1.4
2016-May-23 00:33N 47°34' W 122°21'0 0.0
2016-May-22 23:33N 47°34' W 122°21'0 0.4
2016-May-22 22:33N 47°34' W 122°21'0 0.0
2016-May-22 21:33N 47°34' W 122°21'0 0.3
2016-May-22 20:33N 47°34' W 122°21'0 0.0
2016-May-22 19:33N 47°34' W 122°21'0 0.0
2016-May-22 18:33N 47°34' W 122°21'0 0.0
2016-May-22 17:33N 47°34' W 122°21'1 1.3
2016-May-22 16:33N 47°36' W 122°22'6 6.1
2016-May-22 15:33N 47°37' W 122°31'0 0.4
2016-May-22 14:33N 47°37' W 122°30'7 6.5
2016-May-22 13:33N 47°34' W 122°21'0 0.0
2016-May-22 01:09N 47°34' W 122°21'1 1.2
2016-May-22 00:33N 47°34' W 122°21'2 2.1
2016-May-21 23:33N 47°36' W 122°22'5 5.0
2016-May-21 22:33N 47°39' W 122°28'7 6.8
2016-May-21 21:33N 47°45' W 122°27'7 6.8
2016-May-21 20:33N 47°52' W 122°29'6 6.4
2016-May-21 19:33N 47°57' W 122°35'12 4.9
2016-May-21 17:11N 48°08' W 122°42'3 3.3
2016-May-21 16:13N 48°10' W 122°46'2 2.1
2016-May-21 15:16N 48°11' W 122°48'10 5.5
2016-May-21 13:31N 48°21' W 122°46'7 6.8
2016-May-21 12:33N 48°27' W 122°44'7 6.7
2016-May-21 11:33N 48°34' W 122°45'7 6.7
2016-May-21 10:33N 48°40' W 122°44'6 6.3
2016-May-21 09:33N 48°46' W 122°49'7 7.1
2016-May-21 08:33N 48°50' W 122°58'7 7.4
2016-May-21 07:33N 48°54' W 123°07'7 6.8
2016-May-21 06:33N 48°58' W 123°16'7 7.5
2016-May-21 05:33N 49°03' W 123°23'8 7.6
2016-May-21 04:33N 49°08' W 123°32'7 7.2
2016-May-21 03:33N 49°13' W 123°41'7 7.1
2016-May-21 02:33N 49°17' W 123°49'30 6.9
2016-May-20 22:10N 49°36' W 124°26'4 6.3
2016-May-20 21:31N 49°39' W 124°31'4 1.2
2016-May-20 18:29N 49°42' W 124°33'0 0.0
2016-May-20 16:33N 49°42' W 124°33'0 0.0
2016-May-20 15:33N 49°42' W 124°33'0 0.0
2016-May-20 14:31N 49°42' W 124°33'0 0.0
2016-May-20 13:33N 49°42' W 124°33'0 0.0
2016-May-20 12:33N 49°42' W 124°33'0 0.0
2016-May-20 11:33N 49°42' W 124°33'0 0.3
2016-May-20 10:33N 49°42' W 124°33'0 0.0
2016-May-20 09:33N 49°42' W 124°33'0 0.0
2016-May-20 08:33N 49°42' W 124°33'1 0.5
2016-May-20 07:33N 49°42' W 124°34'3 2.6
2016-May-20 06:31N 49°39' W 124°32'8 8.4
2016-May-20 05:33N 49°34' W 124°22'8 8.1
2016-May-20 04:33N 49°30' W 124°11'8 8.1
2016-May-20 03:33N 49°26' W 124°01'8 7.6
2016-May-20 02:33N 49°22' W 123°51'7 7.4
2016-May-20 01:33N 49°18' W 123°41'7 7.4
2016-May-20 00:33N 49°12' W 123°35'8 8.0
2016-May-19 23:33N 49°06' W 123°25'8 8.3
2016-May-19 22:33N 49°01' W 123°15'8 8.4
2016-May-19 21:33N 48°55' W 123°06'8 7.9
2016-May-19 20:33N 48°50' W 122°57'8 8.2
2016-May-19 19:33N 48°46' W 122°47'7 7.4
2016-May-19 18:33N 48°39' W 122°43'6 6.4
2016-May-19 17:33N 48°32' W 122°44'6 6.3
2016-May-19 16:33N 48°26' W 122°44'7 6.5
2016-May-19 15:32N 48°20' W 122°46'8 7.7
2016-May-19 14:33N 48°12' W 122°47'1110.8
2016-May-19 13:31N 48°03' W 122°38'1010.2
2016-May-19 12:33N 47°55' W 122°29'8 7.6
2016-May-19 11:33N 47°48' W 122°26'6 5.9
2016-May-19 10:33N 47°42' W 122°27'6 5.5
2016-May-19 09:33N 47°37' W 122°24'2 2.0
2016-May-19 08:33N 47°35' W 122°22'1 1.0
2016-May-19 07:33N 47°34' W 122°21'2 2.3
2016-May-19 06:33N 47°36' W 122°24'7 7.0
2016-May-19 05:34N 47°30' W 122°30'8 7.5
2016-May-19 04:33N 47°22' W 122°32'9 8.3
2016-May-19 03:32N 47°14' W 122°35'14 0.8
2016-May-18 10:11N 47°10' W 122°54'1 0.9
2016-May-18 09:28N 47°09' W 122°53'9 4.4
2016-May-18 07:28N 47°08' W 122°40'6 6.8
2016-May-18 06:31N 47°14' W 122°35'8 8.4
2016-May-18 05:33N 47°22' W 122°32'8 7.8
2016-May-18 04:33N 47°29' W 122°30'8 8.0
2016-May-18 03:33N 47°36' W 122°24'1 1.3
2016-May-18 02:33N 47°35' W 122°22'0 0.0
2016-May-18 01:34N 47°35' W 122°22'1 1.0
2016-May-18 00:33N 47°34' W 122°21'0 0.0
2016-May-17 23:33N 47°34' W 122°21'0 0.0
2016-May-17 22:33N 47°34' W 122°21'0 0.0
2016-May-17 21:33N 47°34' W 122°21'0 0.0
2016-May-17 20:33N 47°34' W 122°21'2 1.8
2016-May-17 19:33N 47°33' W 122°20'3 3.2
2016-May-17 18:33N 47°36' W 122°22'3 3.4
2016-May-17 17:33N 47°33' W 122°26'4 4.2
2016-May-17 16:33N 47°30' W 122°30'5 4.6
2016-May-17 15:33N 47°26' W 122°31'6 5.6
2016-May-17 14:33N 47°20' W 122°33'8 7.8
2016-May-17 13:33N 47°12' W 122°36'13 6.0
2016-May-17 11:25N 47°10' W 122°54'1 0.1
2016-May-16 20:28N 47°09' W 122°54'11 3.7
2016-May-16 17:32N 47°11' W 122°38'8 8.1
2016-May-16 16:33N 47°18' W 122°33'7 7.1
2016-May-16 15:33N 47°25' W 122°32'7 7.5
2016-May-16 14:33N 47°32' W 122°28'5 5.3
2016-May-16 13:33N 47°34' W 122°21'0 0.4
2016-May-16 12:33N 47°34' W 122°21'0 0.0
2016-May-14 14:34N 47°34' W 122°21'2 1.8
2016-May-14 13:34N 47°32' W 122°20'1 0.7
2016-May-14 12:33N 47°33' W 122°20'1 1.4
2016-May-14 11:34N 47°34' W 122°21'0 0.0
2016-May-14 10:34N 47°34' W 122°21'0 0.0
2016-May-14 09:34N 47°34' W 122°21'0 0.0
2016-May-14 08:34N 47°34' W 122°21'0 0.0
2016-May-14 07:33N 47°34' W 122°21'  

Dump ship's entire track history